Weather observations for the past three days for
Pierce County-Thun Field
Imperial (Metric)
Date Time (pdt) Wind (mph) Vis. (mi.) Weather Sky Cond. Temperature (ºF) Relative Humidity Wind Chill (°F) Heat Index (°F) Pressure Precipitation (in)
Air Dwpt 6 hour altimeter (in) sea level (mb) 1 hr 3 hr 6 hr
Max. Min.
04 15:35 Vrbl 3 10.00 Fair CLR 80.6 53.6 39% 80 29.84 0.0
04 15:15 Calm 10.00 Fair CLR 80.6 51.8 37% 80 29.84 0.0
04 14:55 Vrbl 5 10.00 Fair CLR 80.6 51.8 37% 80 29.85 0.0
04 14:35 Calm 10.00 Fair CLR 78.8 51.8 39% 79 29.85 0.0
04 14:15 Calm 10.00 Fair CLR 80.6 50 34% 80 29.85 0.0
04 13:55 Calm 10.00 Fair CLR 78.8 50 37% 79 29.85 0.0
04 13:35 Vrbl 5 10.00 Fair CLR 78.8 51.8 39% 79 29.86 0.0
04 13:15 Calm 10.00 Fair CLR 78.8 51.8 39% 79 29.86 0.0
04 12:55 Calm 10.00 Fair CLR 77 50 39% 78 29.86 0.0
04 12:35 Calm 10.00 Fair CLR 77 50 39% 78 29.86 0.0
04 12:15 Calm 10.00 Fair CLR 77 50 39% 78 29.87 0.0
04 11:55 Calm 10.00 Fair CLR 75.2 48.2 39% 77 29.87 0.0
04 11:35 Calm 10.00 Fair CLR 75.2 48.2 39% 77 29.88 0.0
04 11:15 Calm 10.00 Fair CLR 73.4 46.4 38% 29.88 0.0
04 10:55 Calm 10.00 Fair CLR 71.6 46.4 41% 29.88 0.0
04 10:35 Calm 10.00 Fair CLR 71.6 50 47% 29.88 0.0
04 10:15 Calm 10.00 Fair CLR 71.6 50 47% 29.88 0.0
04 09:55 Calm 10.00 Fair CLR 69.8 51.8 53% 29.87 0.0
04 09:35 Calm 10.00 Fair CLR 68 50 53% 29.87 0.0
04 09:15 Calm 10.00 Fair CLR 66.2 50 56% 29.87 0.0
04 08:55 Calm 9.00 Fair CLR 66.2 50 56% 29.87 0.0
04 08:35 SW 3 10.00 Fair CLR 62.6 50 64% 29.86 0.0
04 08:15 Calm 10.00 Fair CLR 62.6 50 64% 29.86 0.0
04 07:55 Calm 10.00 Fair CLR 60.8 50 68% 29.85 0.0
04 07:35 Calm 10.00 Fair CLR 57.2 51.8 82% 29.85 0.0
04 07:15 Calm 10.00 Light Drizzle CLR 55.4 50 82% 29.85 0.0
04 06:55 Calm 10.00 Light Drizzle CLR 51.8 50 94% 29.84 0.0
04 06:35 Calm 10.00 Light Drizzle CLR 50 50 100% 29.84 0.0
04 06:15 Calm 10.00 Light Drizzle CLR 50 50 100% 29.83 0.0
04 05:55 Calm 10.00 Light Drizzle CLR 50 50 100% 29.83 0.0
04 05:35 Calm 10.00 Light Drizzle CLR 50 50 100% 29.82 0.0
04 05:15 Calm 10.00 Light Drizzle CLR 51.8 50 94% 29.83 0.0
04 04:55 Calm 10.00 Light Drizzle FEW060 50 50 100% 29.82 0.0
04 04:35 Calm 10.00 Light Drizzle FEW060 50 50 100% 29.82 0.0
04 04:15 Calm 10.00 Light Drizzle FEW060 50 50 100% 29.82 0.0
04 03:55 Calm 10.00 Light Drizzle CLR 50 50 100% 29.82 0.0
04 03:35 Calm 10.00 Light Drizzle CLR 51.8 51.8 100% 29.81 0.0
04 03:15 Calm 10.00 Fair CLR 51.8 51.8 100% 29.82 0.0
04 02:55 Calm 10.00 Fair CLR 53.6 51.8 94% 29.81 0.0
04 02:35 Calm 10.00 Fair CLR 55.4 53.6 94% 29.82 0.0
04 02:15 Calm 10.00 Fair CLR 53.6 53.6 100% 29.82 0.0
04 01:55 Calm 10.00 Fair CLR 53.6 51.8 94% 29.82 0.0
04 01:35 Calm 10.00 Fair CLR 53.6 51.8 94% 29.82 0.0
04 01:15 Calm 10.00 Fair CLR 55.4 53.6 94% 29.82 0.0
04 00:55 Calm 10.00 Fair CLR 55.4 51.8 88% 29.82 0.0
04 00:35 Calm 10.00 Fair CLR 55.4 51.8 88% 29.82 0.0
04 00:15 Calm 10.00 Fair CLR 55.4 51.8 88% 29.82 0.0
03 23:55 Calm 10.00 Fair CLR 55.4 51.8 88% 29.82 0.0
03 23:35 Calm 10.00 Fair CLR 57.2 53.6 88% 29.82 0.0
03 23:15 Calm 10.00 Fair CLR 57.2 51.8 82% 29.82 0.0
03 22:55 Calm 10.00 Fair CLR 59 51.8 77% 29.82 0.0
03 22:35 Calm 10.00 Fair CLR 57.2 51.8 82% 29.82 0.0
03 22:15 Calm 10.00 Fair CLR 59 51.8 77% 29.82 0.0
03 21:55 Calm 10.00 Fair CLR 60.8 51.8 72% 29.82 0.0
03 21:35 Calm 10.00 Fair CLR 62.6 50 64% 29.82 0.0
03 21:15 Calm 10.00 Fair CLR 62.6 51.8 68% 29.82 0.0
03 20:55 Calm 10.00 Fair CLR 64.4 51.8 64% 29.82 0.0
03 20:35 Calm 10.00 Fair CLR 66.2 50 56% 29.81 0.0
03 20:15 Calm 10.00 Fair CLR 68 51.8 56% 29.81 0.0
03 19:55 Calm 10.00 Fair CLR 71.6 50 47% 29.81 0.0
03 19:35 Calm 10.00 Fair CLR 73.4 50 44% 29.81 0.0
03 19:15 Calm 10.00 Fair CLR 77 48.2 36% 78 29.81 0.0
03 18:55 Calm 10.00 Fair CLR 78.8 48.2 34% 79 29.81 0.0
03 18:35 Calm 10.00 Fair CLR 78.8 48.2 34% 79 29.81 0.0
03 18:15 Vrbl 5 10.00 Fair CLR 80.6 48.2 32% 80 29.82 0.0
03 17:55 Calm 10.00 Fair CLR 80.6 48.2 32% 80 29.82 0.0
03 17:35 Calm 10.00 Fair CLR 82.4 48.2 30% 81 29.83 0.0
03 17:15 Vrbl 5 10.00 Fair CLR 82.4 48.2 30% 81 29.83 0.0
03 16:55 Calm 10.00 Fair CLR 82.4 48.2 30% 81 29.83 0.0
03 16:35 Calm 10.00 Fair CLR 82.4 48.2 30% 81 29.84 0.0
03 16:15 Calm 10.00 Fair CLR 82.4 50 32% 81 29.85 0.0
03 15:55 Calm 10.00 Fair CLR 82.4 50 32% 81 29.85 0.0
03 15:35 Calm 10.00 Fair CLR 82.4 51.8 35% 81 29.86 0.0
03 15:15 NW 5 10.00 Fair CLR 80.6 51.8 37% 80 29.87 0.0
03 14:55 Calm 10.00 Fair CLR 80.6 51.8 37% 80 29.88 0.0
03 14:35 Vrbl 3 10.00 Fair CLR 80.6 51.8 37% 80 29.88 0.0
03 14:15 Calm 10.00 Fair CLR 78.8 51.8 39% 79 29.89 0.0
03 13:55 Vrbl 5 10.00 Fair CLR 78.8 51.8 39% 79 29.89 0.0
03 13:35 Calm 10.00 Fair CLR 78.8 53.6 42% 79 29.9 0.0
03 13:15 Calm 10.00 Fair CLR 78.8 53.6 42% 79 29.9 0.0
03 12:55 Calm 10.00 Fair CLR 78.8 51.8 39% 79 29.91 0.0
03 12:35 Vrbl 3 10.00 Fair CLR 78.8 51.8 39% 79 29.92 0.0
03 11:55 Calm 10.00 Fair CLR 75.2 53.6 47% 78 29.93 0.0
03 11:35 Calm 10.00 Fair CLR 75.2 53.6 47% 78 29.94 0.0
03 11:15 Calm 10.00 Fair CLR 73.4 53.6 50% 29.94 0.0
03 10:55 Calm 10.00 Fair CLR 73.4 53.6 50% 29.94 0.0
03 10:35 Calm 10.00 Fair CLR 71.6 53.6 53% 29.94 0.0
03 10:15 Calm 10.00 Fair CLR 71.6 51.8 50% 29.95 0.0
03 09:55 Calm 10.00 Fair CLR 69.8 51.8 53% 29.95 0.0
03 09:35 Calm 10.00 Fair CLR 69.8 51.8 53% 29.95 0.0
03 09:15 Calm 10.00 Fair CLR 69.8 53.6 57% 29.95 0.0
03 08:55 Calm 10.00 Fair CLR 68 53.6 60% 29.95 0.0
03 08:35 Calm 10.00 Fair CLR 64.4 55.4 73% 29.96 0.0
03 08:15 Calm 10.00 Fair CLR 62.6 57.2 83% 29.95 0.0
03 07:55 Calm 10.00 Light Drizzle CLR 60.8 57.2 88% 29.95 0.0
03 07:35 Calm 10.00 Light Drizzle CLR 55.4 55.4 100% 29.95 0.0
03 07:15 Calm 10.00 Light Drizzle CLR 53.6 53.6 100% 29.95 0.0
03 06:55 Calm 10.00 Light Drizzle CLR 51.8 51.8 100% 29.95 0.0
03 06:35 Calm 10.00 Light Drizzle CLR 51.8 51.8 100% 29.95 0.0
03 06:15 Calm 9.00 Light Drizzle CLR 50 50 100% 29.95 0.0
03 05:55 Calm 9.00 Light Drizzle CLR 50 50 100% 29.94 0.0
03 05:35 Calm 10.00 Light Drizzle CLR 51.8 51.8 100% 29.95 0.0
03 05:15 Calm 9.00 Light Drizzle CLR 50 50 100% 29.95 0.0
03 04:55 Calm 10.00 Light Drizzle CLR 51.8 51.8 100% 29.95 0.0
03 04:35 Calm 10.00 Light Drizzle CLR 51.8 51.8 100% 29.95 0.0
03 04:15 Calm 10.00 Light Drizzle CLR 51.8 51.8 100% 29.95 0.0
03 03:55 Calm 10.00 Light Drizzle CLR 51.8 51.8 100% 29.95 0.0
03 03:35 Calm 0.00 Light Drizzle NULL 51.8 51.8 100% 29.95 0.0
03 03:15 Calm 10.00 Light Drizzle CLR 53.6 53.6 100% 29.96 0.0
03 02:55 Calm 10.00 A Few Clouds FEW050 51.8 51.8 100% 29.96 0.0
03 02:35 Calm 10.00 Fair CLR 51.8 51.8 100% 29.96 0.0
03 02:15 Calm 10.00 Fair CLR 53.6 51.8 94% 29.96 0.0
03 01:55 Calm 10.00 Fair CLR 53.6 51.8 94% 29.96 0.0
03 01:35 Calm 10.00 Fair CLR 53.6 51.8 94% 29.96 0.0
03 01:15 Calm 10.00 Fair CLR 53.6 51.8 94% 29.96 0.0
03 00:55 Calm 10.00 Fair CLR 53.6 51.8 94% 29.97 0.0
03 00:35 Calm 10.00 Fair CLR 55.4 51.8 88% 29.97 0.0
03 00:15 Calm 10.00 Fair CLR 55.4 51.8 88% 29.97 0.0
02 23:55 Calm 10.00 Fair CLR 55.4 53.6 94% 29.97 0.0
02 23:35 Calm 10.00 Fair CLR 55.4 53.6 94% 29.97 0.0
02 23:15 Calm 10.00 Fair CLR 57.2 53.6 88% 29.96 0.0
02 22:55 Calm 10.00 Fair CLR 57.2 53.6 88% 29.96 0.0
02 22:35 Calm 10.00 Fair CLR 57.2 53.6 88% 29.96 0.0
02 22:15 Calm 10.00 Fair CLR 59 51.8 77% 29.96 0.0
02 21:55 Calm 10.00 Fair CLR 59 51.8 77% 29.96 0.0
02 21:35 Calm 10.00 Fair CLR 59 51.8 77% 29.95 0.0
02 21:15 Calm 10.00 Fair CLR 60.8 51.8 72% 29.94 0.0
02 20:55 Calm 10.00 Fair CLR 62.6 51.8 68% 29.94 0.0
02 20:35 Calm 10.00 Fair CLR 62.6 51.8 68% 29.93 0.0
02 20:15 Calm 10.00 Fair CLR 64.4 53.6 68% 29.92 0.0
02 19:55 Calm 10.00 Fair CLR 68 51.8 56% 29.92 0.0
02 19:35 Calm 10.00 Fair CLR 69.8 51.8 53% 29.91 0.0
02 19:15 Calm 10.00 Fair CLR 71.6 50 47% 29.91 0.0
02 18:55 Calm 10.00 Fair CLR 73.4 50 44% 29.91 0.0
02 18:35 Calm 10.00 Fair CLR 73.4 50 44% 29.92 0.0
02 18:15 Calm 10.00 Fair CLR 75.2 50 41% 78 29.92 0.0
02 17:55 Calm 10.00 Fair CLR 75.2 50 41% 78 29.92 0.0
02 17:35 Calm 10.00 Fair CLR 75.2 50 41% 78 29.92 0.0
02 17:15 Vrbl 5 10.00 Fair CLR 75.2 51.8 44% 78 29.92 0.0
02 16:55 Vrbl 6 G 12 10.00 Fair CLR 75.2 51.8 44% 78 29.93 0.0
02 16:35 Vrbl 6 G 13 10.00 Fair CLR 75.2 51.8 44% 78 29.93 0.0
02 16:15 Vrbl 5 G 12 10.00 Fair CLR 75.2 53.6 47% 78 29.94 0.0
02 15:55 Calm 10.00 Fair CLR 75.2 53.6 47% 78 29.95 0.0
02 15:35 Calm 10.00 Fair CLR 73.4 53.6 50% 29.95 0.0
02 15:15 Vrbl 3 10.00 Fair CLR 71.6 53.6 53% 29.97 0.0
02 14:55 Calm 10.00 Fair CLR 71.6 53.6 53% 29.97 0.0
02 14:35 Calm 10.00 Fair CLR 73.4 53.6 50% 29.97 0.0
02 14:15 Vrbl 5 10.00 Fair CLR 73.4 53.6 50% 29.98 0.0
02 13:55 Calm 10.00 Fair CLR 71.6 51.8 50% 29.98 0.0
02 13:35 Calm 10.00 Fair CLR 69.8 53.6 57% 29.99 0.0
02 13:15 Vrbl 5 G 13 10.00 Fair CLR 69.8 51.8 53% 29.99 0.0
02 12:55 Calm 10.00 Fair CLR 68 51.8 56% 30 0.0
02 12:35 Calm 10.00 Fair CLR 68 51.8 56% 30.01 0.0
02 12:15 Calm 10.00 Fair CLR 66.2 51.8 60% 30.01 0.0
02 11:55 Calm 10.00 Fair CLR 66.2 51.8 60% 30.02 0.0
02 11:15 Calm 10.00 Fair CLR 62.6 51.8 68% 30.03 0.0
02 10:55 Calm 10.00 Fair CLR 60.8 50 68% 30.04 0.0
02 10:35 Calm 10.00 Fair CLR 59 50 72% 30.04 0.0
02 10:15 Calm 10.00 Fair CLR 57.2 50 77% 30.03 0.0
02 09:55 Calm 10.00 Fair CLR 57.2 50 77% 30.03 0.0
02 09:35 Calm 10.00 Fair CLR 55.4 50 82% 30.03 0.0
02 09:15 Calm 10.00 Fair CLR 53.6 50 88% 30.03 0.0
02 08:55 Calm 10.00 Partly Cloudy SCT009 53.6 50 88% 30.03 0.0
02 08:35 Calm 10.00 Overcast OVC008 51.8 50 94% 30.04 0.0
02 08:15 Calm 10.00 Overcast OVC008 51.8 50 94% 30.04 0.0
02 07:55 Calm 9.00 Mostly Cloudy BKN007 51.8 50 94% 30.04 0.0
02 07:35 Calm 9.00 Partly Cloudy SCT007 50 50 100% 30.03 0.0
02 07:15 Calm 10.00 Fair CLR 50 50 100% 30.03 0.0
02 06:55 Calm 10.00 Partly Cloudy FEW007 SCT012 50 50 100% 30.02 0.0
02 06:35 Calm 10.00 Partly Cloudy SCT008 SCT012 50 50 100% 30.03 0.0
02 06:15 Calm 9.00 Fair CLR 50 50 100% 30.03 0.0
02 05:55 Calm 10.00 Partly Cloudy SCT009 50 50 100% 30.02 0.0
02 05:35 Calm 10.00 Mostly Cloudy BKN009 BKN100 50 50 100% 30.03 0.0
02 05:15 Calm 10.00 Partly Cloudy FEW009 SCT110 50 50 100% 30.03 0.0
02 04:55 Calm 10.00 Mostly Cloudy BKN009 BKN085 BKN110 50 50 100% 30.03 0.0
02 04:35 Calm 10.00 Overcast SCT009 BKN065 OVC100 51.8 50 94% 30.04 0.0
02 04:15 Calm 10.00 Mostly Cloudy FEW009 SCT080 BKN100 51.8 50 94% 30.04 0.0
02 03:55 Calm 10.00 Overcast BKN009 OVC095 51.8 50 94% 30.03 0.0
02 03:35 Calm 10.00 Overcast BKN010 BKN050 OVC110 51.8 50 94% 30.06 0.0
02 03:15 Calm 10.00 Mostly Cloudy FEW050 BKN110 51.8 50 94% 30.06 0.0
02 02:55 Calm 10.00 Mostly Cloudy BKN110 50 50 100% 30.04 0.0
02 02:35 Calm 10.00 Mostly Cloudy SCT100 BKN120 51.8 50 94% 30.03 0.0
02 02:15 Calm 10.00 Partly Cloudy FEW046 SCT110 51.8 50 94% 30.03 0.0
02 01:55 Calm 10.00 Partly Cloudy FEW048 SCT120 51.8 50 94% 30.03 0.0
02 01:35 Calm 10.00 Partly Cloudy FEW055 SCT110 51.8 50 94% 30.03 0.0
02 01:15 Calm 10.00 Mostly Cloudy BKN110 53.6 50 88% 30.04 0.0
02 00:55 Calm 10.00 A Few Clouds FEW110 53.6 50 88% 30.04 0.0
02 00:35 Calm 10.00 A Few Clouds FEW110 53.6 50 88% 30.03 0.0
02 00:15 Calm 10.00 Partly Cloudy FEW055 SCT110 53.6 50 88% 30.03 0.0
01 23:55 Calm 10.00 A Few Clouds FEW050 55.4 50 82% 30.03 0.0
01 23:35 Calm 10.00 A Few Clouds FEW055 FEW110 55.4 50 82% 30.02 0.0
01 23:15 Calm 10.00 Mostly Cloudy FEW043 SCT070 BKN110 59 50 72% 30.03 0.0
01 22:55 Calm 10.00 Mostly Cloudy FEW060 FEW075 BKN110 59 51.8 77% 30.02 0.0
01 22:35 Calm 10.00 Overcast FEW065 OVC110 60.8 51.8 72% 30.02 0.0
01 22:15 Calm 10.00 Overcast OVC110 60.8 50 68% 30.02 0.0
01 21:55 Calm 10.00 Overcast OVC120 60.8 48.2 63% 30.01 0.0
01 21:35 Calm 10.00 Overcast OVC120 60.8 48.2 63% 30 0.0
01 21:15 Calm 10.00 Overcast OVC120 60.8 48.2 63% 30 0.0
01 20:55 Calm 10.00 Mostly Cloudy BKN120 60.8 50 68% 29.99 0.0
01 20:35 Calm 10.00 Mostly Cloudy BKN120 62.6 48.2 60% 29.98 0.0
01 20:15 Calm 10.00 Mostly Cloudy BKN120 64.4 46.4 52% 29.97 0.0
01 19:55 Calm 10.00 Mostly Cloudy BKN120 66.2 46.4 49% 29.97 0.0
01 19:35 Vrbl 5 10.00 Partly Cloudy SCT120 68 46.4 46% 29.96 0.0
01 19:15 Vrbl 6 10.00 A Few Clouds FEW120 69.8 48.2 46% 29.95 0.0
01 18:55 Vrbl 5 10.00 Fair CLR 71.6 50 47% 29.95 0.0
01 18:35 Calm 10.00 Fair CLR 73.4 48.2 41% 29.95 0.0
01 18:15 Calm 10.00 Fair CLR 73.4 48.2 41% 29.95 0.0
01 17:55 Calm 10.00 A Few Clouds FEW120 75.2 46.4 36% 77 29.96 0.0
01 17:35 Calm 10.00 Partly Cloudy SCT120 73.4 46.4 38% 29.96 0.0
01 17:15 Calm 10.00 A Few Clouds FEW110 75.2 46.4 36% 77 29.96 0.0
01 16:55 Calm 10.00 Partly Cloudy SCT110 75.2 46.4 36% 77 29.96 0.0
01 16:35 Calm 10.00 Partly Cloudy SCT110 75.2 46.4 36% 77 29.96 0.0
01 16:15 Calm 10.00 Partly Cloudy SCT110 75.2 46.4 36% 77 29.97 0.0
01 15:55 Calm 10.00 A Few Clouds FEW110 75.2 46.4 36% 77 29.97 0.0
Date Time (pdt) Wind (mph) Vis. (mi.) Weather Sky Cond. Air Dwpt Max. Min. Relative Humidity Wind Chill (°F) Heat Index (°F) altimeter (in) sea level (mb) 1 hr 3 hr 6 hr
6 hour
Temperature (ºF) Pressure Precipitation (in)